Middlefield, Massachusetts
Current Conditions -  °F | °C
As of 2:54 AM on Friday 24 Oct 2014 (Local Time) from KPSF Reporting Station
Light Rain Light Rain  
Wind Chill: 40°   Ceiling: 500
Heat Index: 43°   Visibility: 10mi
Dew Point: 41°   Wind: 5mph
Humidity: 93%   Direction: NA
Pressure: 29.76"   Gusts: NA
Location:  42.35°N, 73.02°W
Report Text: KPSF 240654Z AUTO VRB04KT 10SM -RA OVC005 06/05 A2976 RMK AO2 RAB08 SLP076 P0001 T00610050
Loading
Personal Weather Stations






























Interactive Weather Map
Tropical Storm Tracking
New forecast layout! Learn more

10-Day Weather Forecast

Advertisements
Track Severe Weather on mobile